Hlavní strana
METAR-TAF:

METAR-TAF

Letiště :

Barranquilla, Kolumbie

zeměpisná šířka: 10-53N, zeměpisná délka: 074-47W, výška: 14 m

Aktuální stav počasí

Zpráva byla vytvořena před 56 minutami, v 07:00 UTC
Severní vítr 5 kt
Teplota 27°C
Vlhkost vzduchu 89%
Tlak 1010 hPa
Viditelnost 10 km a více
Skoro jasno ve výšce 1500 ft
Oblačno až skoro zataženo ve výšce 7000 ft

METAR: SKBQ 260700Z 01005KT 9999 FEW015 BKN070 27/25 A2982

Čas: 02:56 (07:56 UTC)

Předpověď počasí

Zpráva byla vytvořena před 3 hodinami a 26 minutami, v 04:30 UTC
Předpověď platná od 26 v 06 UTC do 27 v 06 UTC
Severoseverovýchodní vítr 10 kt
Viditelnost 10 km a více
Polojasno ve výšce 1500 ft
Dočasný
od 26 v 10 UTC do 26 v 13 UTC
Viditelnost: 3000 m
Oblačno až skoro zataženo ve výšce 1000 ft
kouřmo

TAF: SKBQ 260430Z 2606/2706 02010KT 9999 SCT015 TEMPO 2610/2613 3000 BR BKN010 TX34/2617Z TN26/2610Z

Stav a předpovědi počasí z více než 4 000 letišť (zprávy METAR a TAF).

Červené a žluté tečky na mapě představují dostupné meteorologické stanice.

Když kurzor umístíte na tečku, zobrazí se název stanice.

Pak kliknutím zobrazíte stav a předpověď počasí.

Chcete-li změnit mapu, kliknutím na zelené tlačítko se znaménkem +mapu přiblížíte, kliknutím na zelené tlačítko se znaménkem – mapu oddálíte a kliknutím na zelené šipky přejdete na sousední mapy.


METAR-TAF: